Poplar, Minnesota
Current Conditions -  °F | °C
As of 7:33 AM on Friday 28 Nov 2014 (Local Time) from KSAZ Reporting Station
Light Snow Light Snow  
Wind Chill: -1°   Ceiling: 4500
Heat Index:   Visibility: 5mi
Dew Point:   Wind: 6mph
Humidity: 79%   Direction: 110°ESE
Pressure: 29.95"   Gusts: NA
Location:  46.4416°N, 94.6389°W
Report Text: KSAZ 281333Z AUTO 11005KT 5SM -SN OVC045 M13/M16 A2995 RMK AO2
Loading
Personal Weather Stations






























Interactive Weather Map New forecast layout! Learn more

10-Day Weather Forecast

Advertisements
Track Severe Weather on mobile